PRIVATE WETTERSTATION BILLIGHEIM-ALLFELD                       ZURCK
Wetterdaten: Montag, 02.10.2017
Datum Zeit Temp. A. Temp. A. min Temp. A. max Feuchte A. Luftdruck Regen Wind Richtung Richtung Sonnenschein ET Solar Taupunkt Windchill Windben Empfang
02.10.2017 00:00 7,4 C 7,4 C 7,4 C 89 % 1020,3 hPa 0,0 l/m 0,0 km/h (0 Bft) N 0 0 min 0,000 mm 0 W/m 5,7 C 7,4 C 0,0 km/h (0 Bft) 100 %
02.10.2017 00:10 7,3 C 7,3 C 7,4 C 89 % 1020,3 hPa 0,0 l/m 0,0 km/h (0 Bft) N 0 0 min 0,000 mm 0 W/m 5,6 C 7,3 C 0,0 km/h (0 Bft) 100 %
02.10.2017 00:20 7,3 C 7,3 C 7,3 C 89 % 1020,4 hPa 0,0 l/m 0,0 km/h (0 Bft) N 0 0 min 0,000 mm 0 W/m 5,6 C 7,3 C 0,0 km/h (0 Bft) 99 %
02.10.2017 00:30 7,3 C 7,3 C 7,3 C 89 % 1020,2 hPa 0,0 l/m 0,0 km/h (0 Bft) N 0 0 min 0,000 mm 0 W/m 5,6 C 7,3 C 0,0 km/h (0 Bft) 100 %
02.10.2017 00:40 7,3 C 7,3 C 7,3 C 89 % 1020,1 hPa 0,0 l/m 0,0 km/h (0 Bft) N 0 0 min 0,000 mm 0 W/m 5,6 C 7,3 C 0,0 km/h (0 Bft) 100 %
02.10.2017 00:50 7,3 C 7,3 C 7,3 C 89 % 1019,9 hPa 0,0 l/m 0,0 km/h (0 Bft) N 0 0 min 0,000 mm 0 W/m 5,6 C 7,3 C 0,0 km/h (0 Bft) 100 %
02.10.2017 01:00 7,3 C 7,3 C 7,3 C 89 % 1019,9 hPa 0,0 l/m 0,0 km/h (0 Bft) N 0 0 min 0,000 mm 0 W/m 5,6 C 7,3 C 0,0 km/h (0 Bft) 100 %
02.10.2017 01:10 7,3 C 7,3 C 7,3 C 89 % 1019,8 hPa 0,0 l/m 0,0 km/h (0 Bft) N 0 0 min 0,000 mm 0 W/m 5,6 C 7,3 C 0,0 km/h (0 Bft) 100 %
02.10.2017 01:20 7,4 C 7,3 C 7,4 C 90 % 1019,8 hPa 0,0 l/m 0,0 km/h (0 Bft) N 0 0 min 0,000 mm 0 W/m 5,9 C 7,4 C 0,0 km/h (0 Bft) 100 %
02.10.2017 01:30 7,4 C 7,3 C 7,4 C 90 % 1019,8 hPa 0,0 l/m 0,0 km/h (0 Bft) O-NO 67 0 min 0,000 mm 0 W/m 5,9 C 7,4 C 1,6 km/h (1 Bft) 100 %
02.10.2017 01:40 7,4 C 7,4 C 7,4 C 90 % 1019,7 hPa 0,0 l/m 0,0 km/h (0 Bft) N 0 0 min 0,000 mm 0 W/m 5,9 C 7,4 C 0,0 km/h (0 Bft) 100 %
02.10.2017 01:50 7,5 C 7,4 C 7,5 C 90 % 1019,7 hPa 0,0 l/m 0,0 km/h (0 Bft) N 0 0 min 0,000 mm 0 W/m 6,0 C 7,5 C 0,0 km/h (0 Bft) 99 %
02.10.2017 02:00 7,5 C 7,5 C 7,5 C 90 % 1019,7 hPa 0,0 l/m 0,0 km/h (0 Bft) O-NO 67 0 min 0,000 mm 0 W/m 6,0 C 7,5 C 1,6 km/h (1 Bft) 100 %
02.10.2017 02:10 7,6 C 7,5 C 7,6 C 90 % 1019,7 hPa 0,0 l/m 0,0 km/h (0 Bft) O-NO 67 0 min 0,000 mm 0 W/m 6,1 C 7,6 C 4,8 km/h (1 Bft) 100 %
02.10.2017 02:20 7,6 C 7,5 C 7,6 C 90 % 1019,8 hPa 0,0 l/m 0,0 km/h (0 Bft) N 0 0 min 0,000 mm 0 W/m 6,1 C 7,6 C 0,0 km/h (0 Bft) 100 %
02.10.2017 02:30 7,9 C 7,6 C 7,9 C 90 % 1019,9 hPa 0,0 l/m 0,0 km/h (0 Bft) O-NO 67 0 min 0,000 mm 0 W/m 6,4 C 7,9 C 1,6 km/h (1 Bft) 99 %
02.10.2017 02:40 7,9 C 7,9 C 7,9 C 90 % 1019,9 hPa 0,0 l/m 0,0 km/h (0 Bft) N 0 0 min 0,000 mm 0 W/m 6,4 C 7,9 C 0,0 km/h (0 Bft) 99 %
02.10.2017 02:50 7,9 C 7,9 C 7,9 C 90 % 1019,8 hPa 0,0 l/m 0,0 km/h (0 Bft) N 0 0 min 0,000 mm 0 W/m 6,4 C 7,9 C 0,0 km/h (0 Bft) 100 %
02.10.2017 03:00 7,9 C 7,8 C 7,9 C 90 % 1019,5 hPa 0,0 l/m 0,0 km/h (0 Bft) N 0 0 min 0,000 mm 0 W/m 6,4 C 7,9 C 0,0 km/h (0 Bft) 100 %
02.10.2017 03:10 7,9 C 7,8 C 7,9 C 90 % 1019,2 hPa 0,0 l/m 0,0 km/h (0 Bft) N 0 0 min 0,000 mm 0 W/m 6,4 C 7,9 C 0,0 km/h (0 Bft) 100 %
02.10.2017 03:20 8,0 C 7,9 C 8,0 C 90 % 1019,1 hPa 0,0 l/m 0,0 km/h (0 Bft) N 0 0 min 0,000 mm 0 W/m 6,5 C 8,0 C 0,0 km/h (0 Bft) 100 %
02.10.2017 03:30 7,8 C 7,8 C 8,0 C 90 % 1019,1 hPa 0,0 l/m 0,0 km/h (0 Bft) N 0 0 min 0,000 mm 0 W/m 6,3 C 7,8 C 0,0 km/h (0 Bft) 100 %
02.10.2017 03:40 7,7 C 7,7 C 7,8 C 89 % 1019,1 hPa 0,0 l/m 0,0 km/h (0 Bft) N 0 0 min 0,000 mm 0 W/m 6,0 C 7,7 C 0,0 km/h (0 Bft) 100 %
02.10.2017 03:50 7,6 C 7,6 C 7,7 C 90 % 1019,0 hPa 0,0 l/m 0,0 km/h (0 Bft) N 0 0 min 0,000 mm 0 W/m 6,1 C 7,6 C 0,0 km/h (0 Bft) 100 %
02.10.2017 04:00 7,5 C 7,5 C 7,6 C 90 % 1019,1 hPa 0,0 l/m 0,0 km/h (0 Bft) N 0 0 min 0,000 mm 0 W/m 6,0 C 7,5 C 0,0 km/h (0 Bft) 100 %
02.10.2017 04:10 7,5 C 7,5 C 7,6 C 90 % 1019,1 hPa 0,0 l/m 0,0 km/h (0 Bft) N 0 0 min 0,000 mm 0 W/m 6,0 C 7,5 C 0,0 km/h (0 Bft) 100 %
02.10.2017 04:20 7,6 C 7,5 C 7,6 C 90 % 1019,1 hPa 0,0 l/m 0,0 km/h (0 Bft) O-NO 67 0 min 0,000 mm 0 W/m 6,1 C 7,6 C 1,6 km/h (1 Bft) 100 %
02.10.2017 04:30 7,6 C 7,6 C 7,6 C 90 % 1019,0 hPa 0,0 l/m 0,0 km/h (0 Bft) N 0 0 min 0,000 mm 0 W/m 6,1 C 7,6 C 0,0 km/h (0 Bft) 100 %
02.10.2017 04:40 7,6 C 7,6 C 7,6 C 90 % 1019,0 hPa 0,0 l/m 0,0 km/h (0 Bft) N 0 0 min 0,000 mm 0 W/m 6,1 C 7,6 C 0,0 km/h (0 Bft) 100 %
02.10.2017 04:50 7,5 C 7,5 C 7,6 C 90 % 1019,0 hPa 0,0 l/m 0,0 km/h (0 Bft) N 0 0 min 0,000 mm 0 W/m 6,0 C 7,5 C 0,0 km/h (0 Bft) 90 %
02.10.2017 05:00 7,4 C 7,4 C 7,6 C 90 % 1019,0 hPa 0,0 l/m 0,0 km/h (0 Bft) N 0 0 min 0,000 mm 0 W/m 5,9 C 7,4 C 0,0 km/h (0 Bft) 99 %
02.10.2017 05:10 7,4 C 7,4 C 7,4 C 90 % 1019,0 hPa 0,0 l/m 0,0 km/h (0 Bft) N 0 0 min 0,000 mm 0 W/m 5,9 C 7,4 C 0,0 km/h (0 Bft) 100 %
02.10.2017 05:20 7,4 C 7,4 C 7,4 C 90 % 1018,9 hPa 0,0 l/m 0,0 km/h (0 Bft) N 0 0 min 0,000 mm 0 W/m 5,9 C 7,4 C 0,0 km/h (0 Bft) 100 %
02.10.2017 05:30 7,4 C 7,4 C 7,4 C 90 % 1018,8 hPa 0,0 l/m 0,0 km/h (0 Bft) N 0 0 min 0,000 mm 0 W/m 5,9 C 7,4 C 0,0 km/h (0 Bft) 100 %
02.10.2017 05:40 7,4 C 7,4 C 7,4 C 90 % 1018,7 hPa 0,0 l/m 0,0 km/h (0 Bft) N 0 0 min 0,000 mm 0 W/m 5,9 C 7,4 C 0,0 km/h (0 Bft) 100 %
02.10.2017 05:50 7,3 C 7,3 C 7,4 C 90 % 1018,7 hPa 0,0 l/m 0,0 km/h (0 Bft) N 0 0 min 0,000 mm 0 W/m 5,8 C 7,3 C 0,0 km/h (0 Bft) 100 %
02.10.2017 06:00 7,3 C 7,3 C 7,3 C 90 % 1018,5 hPa 0,0 l/m 0,0 km/h (0 Bft) N 0 0 min 0,000 mm 0 W/m 5,8 C 7,3 C 0,0 km/h (0 Bft) 100 %
02.10.2017 06:10 7,4 C 7,3 C 7,4 C 90 % 1018,6 hPa 0,0 l/m 0,0 km/h (0 Bft) N 0 0 min 0,000 mm 0 W/m 5,9 C 7,4 C 0,0 km/h (0 Bft) 100 %
02.10.2017 06:20 7,4 C 7,4 C 7,4 C 90 % 1018,6 hPa 0,0 l/m 0,0 km/h (0 Bft) N 0 0 min 0,000 mm 0 W/m 5,9 C 7,4 C 0,0 km/h (0 Bft) 100 %
02.10.2017 06:30 7,3 C 7,3 C 7,4 C 90 % 1018,6 hPa 0,0 l/m 0,0 km/h (0 Bft) N 0 0 min 0,000 mm 0 W/m 5,8 C 7,3 C 0,0 km/h (0 Bft) 100 %
02.10.2017 06:40 7,3 C 7,3 C 7,3 C 90 % 1018,5 hPa 0,0 l/m 0,0 km/h (0 Bft) N 0 0 min 0,000 mm 0 W/m 5,8 C 7,3 C 0,0 km/h (0 Bft) 100 %
02.10.2017 06:50 7,3 C 7,3 C 7,3 C 90 % 1018,5 hPa 0,0 l/m 0,0 km/h (0 Bft) N 0 0 min 0,000 mm 0 W/m 5,8 C 7,3 C 0,0 km/h (0 Bft) 100 %
02.10.2017 07:00 7,3 C 7,2 C 7,3 C 90 % 1018,5 hPa 0,0 l/m 0,0 km/h (0 Bft) N 0 0 min 0,000 mm 0 W/m 5,8 C 7,3 C 0,0 km/h (0 Bft) 100 %
02.10.2017 07:10 7,2 C 7,2 C 7,2 C 90 % 1018,6 hPa 0,0 l/m 0,0 km/h (0 Bft) N 0 0 min 0,000 mm 0 W/m 5,7 C 7,2 C 0,0 km/h (0 Bft) 91 %
02.10.2017 07:20 7,2 C 7,2 C 7,2 C 90 % 1018,6 hPa 0,0 l/m 0,0 km/h (0 Bft) N 0 0 min 0,000 mm 7 W/m 5,7 C 7,2 C 0,0 km/h (0 Bft) 100 %
02.10.2017 07:30 7,3 C 7,2 C 7,3 C 90 % 1018,6 hPa 0,0 l/m 0,0 km/h (0 Bft) N 0 0 min 0,000 mm 9 W/m 5,8 C 7,3 C 0,0 km/h (0 Bft) 100 %
02.10.2017 07:40 7,4 C 7,3 C 7,4 C 90 % 1018,5 hPa 0,0 l/m 0,0 km/h (0 Bft) N 0 0 min 0,000 mm 23 W/m 5,9 C 7,4 C 0,0 km/h (0 Bft) 100 %
02.10.2017 07:50 7,6 C 7,4 C 7,6 C 90 % 1018,5 hPa 0,0 l/m 0,0 km/h (0 Bft) N 0 0 min 0,000 mm 30 W/m 6,1 C 7,6 C 0,0 km/h (0 Bft) 100 %
02.10.2017 08:00 7,7 C 7,6 C 7,7 C 90 % 1018,4 hPa 0,0 l/m 0,0 km/h (0 Bft) N 0 0 min 0,000 mm 42 W/m 6,2 C 7,7 C 0,0 km/h (0 Bft) 100 %
02.10.2017 08:10 8,3 C 7,7 C 8,3 C 94 % 1018,3 hPa 0,0 l/m 0,0 km/h (0 Bft) O-NO 67 0 min 0,000 mm 51 W/m 7,4 C 8,3 C 1,6 km/h (1 Bft) 100 %
02.10.2017 08:20 8,4 C 8,3 C 8,4 C 90 % 1018,3 hPa 0,0 l/m 0,0 km/h (0 Bft) N 0 0 min 0,000 mm 51 W/m 6,9 C 8,4 C 0,0 km/h (0 Bft) 100 %
02.10.2017 08:30 8,6 C 8,4 C 8,6 C 90 % 1018,3 hPa 0,0 l/m 0,0 km/h (0 Bft) N 0 0 min 0,000 mm 47 W/m 7,1 C 8,6 C 0,0 km/h (0 Bft) 100 %
02.10.2017 08:40 9,3 C 8,6 C 9,3 C 90 % 1018,3 hPa 0,0 l/m 0,0 km/h (0 Bft) N 0 0 min 0,000 mm 53 W/m 7,7 C 9,3 C 0,0 km/h (0 Bft) 100 %
02.10.2017 08:50 9,7 C 9,3 C 9,7 C 90 % 1018,3 hPa 0,0 l/m 0,0 km/h (0 Bft) O 90 0 min 0,000 mm 72 W/m 8,1 C 9,7 C 1,6 km/h (1 Bft) 100 %
02.10.2017 09:00 10,1 C 9,7 C 10,1 C 90 % 1018,2 hPa 0,0 l/m 0,0 km/h (0 Bft) N 0 0 min 0,025 mm 113 W/m 8,5 C 10,1 C 0,0 km/h (0 Bft) 100 %
02.10.2017 09:10 10,3 C 10,1 C 10,3 C 90 % 1018,2 hPa 0,0 l/m 0,0 km/h (0 Bft) N 0 0 min 0,000 mm 116 W/m 8,7 C 10,3 C 0,0 km/h (0 Bft) 100 %
02.10.2017 09:20 10,4 C 10,3 C 10,4 C 90 % 1018,1 hPa 0,0 l/m 1,6 km/h (1 Bft) SO 135 0 min 0,000 mm 95 W/m 8,8 C 10,4 C 6,4 km/h (2 Bft) 100 %
02.10.2017 09:30 10,4 C 10,4 C 10,5 C 90 % 1018,1 hPa 0,0 l/m 4,8 km/h (1 Bft) SO 135 0 min 0,000 mm 63 W/m 8,8 C 10,4 C 9,7 km/h (2 Bft) 100 %
02.10.2017 09:40 10,6 C 10,4 C 10,6 C 90 % 1018,0 hPa 0,0 l/m 3,2 km/h (1 Bft) SO 135 0 min 0,000 mm 77 W/m 9,0 C 10,6 C 8,0 km/h (2 Bft) 100 %
02.10.2017 09:50 10,7 C 10,6 C 10,7 C 90 % 1017,9 hPa 0,0 l/m 3,2 km/h (1 Bft) SO 135 0 min 0,000 mm 84 W/m 9,1 C 10,7 C 8,0 km/h (2 Bft) 93 %
02.10.2017 10:00 10,8 C 10,7 C 10,8 C 90 % 1017,7 hPa 0,0 l/m 1,6 km/h (1 Bft) SO 135 0 min 0,051 mm 97 W/m 9,2 C 10,8 C 6,4 km/h (2 Bft) 98 %
02.10.2017 10:10 11,1 C 10,8 C 11,1 C 89 % 1017,9 hPa 0,0 l/m 1,6 km/h (1 Bft) S-SO 157 0 min 0,000 mm 151 W/m 9,4 C 11,1 C 6,4 km/h (2 Bft) 100 %
02.10.2017 10:20 11,3 C 11,1 C 11,3 C 89 % 1017,8 hPa 0,0 l/m 1,6 km/h (1 Bft) S-SO 157 10 min 0,000 mm 153 W/m 9,6 C 11,3 C 6,4 km/h (2 Bft) 100 %
02.10.2017 10:30 11,4 C 11,3 C 11,4 C 89 % 1017,9 hPa 0,0 l/m 1,6 km/h (1 Bft) S 180 0 min 0,000 mm 121 W/m 9,7 C 11,4 C 6,4 km/h (2 Bft) 100 %
02.10.2017 10:40 11,4 C 11,3 C 11,4 C 90 % 1018,1 hPa 0,0 l/m 3,2 km/h (1 Bft) S 180 0 min 0,000 mm 120 W/m 9,8 C 11,4 C 6,4 km/h (2 Bft) 100 %
02.10.2017 10:50 11,5 C 11,4 C 11,5 C 89 % 1018,1 hPa 0,0 l/m 1,6 km/h (1 Bft) S 180 0 min 0,000 mm 139 W/m 9,8 C 11,5 C 4,8 km/h (1 Bft) 100 %
02.10.2017 11:00 11,7 C 11,5 C 11,7 C 90 % 1018,2 hPa 0,0 l/m 1,6 km/h (1 Bft) S 180 0 min 0,051 mm 132 W/m 10,1 C 11,7 C 4,8 km/h (1 Bft) 100 %
02.10.2017 11:10 11,8 C 11,7 C 11,8 C 90 % 1018,1 hPa 0,2 l/m 1,6 km/h (1 Bft) S 180 0 min 0,000 mm 118 W/m 10,2 C 11,8 C 4,8 km/h (1 Bft) 99 %
02.10.2017 11:20 11,9 C 11,8 C 11,9 C 90 % 1017,8 hPa 0,0 l/m 4,8 km/h (1 Bft) S 180 0 min 0,000 mm 137 W/m 10,3 C 11,9 C 8,0 km/h (2 Bft) 100 %
02.10.2017 11:30 12,2 C 11,9 C 12,2 C 89 % 1017,7 hPa 0,0 l/m 4,8 km/h (1 Bft) S-SO 157 10 min 0,000 mm 162 W/m 10,4 C 12,2 C 11,3 km/h (2 Bft) 100 %
02.10.2017 11:40 12,3 C 12,2 C 12,3 C 89 % 1017,7 hPa 0,0 l/m 3,2 km/h (1 Bft) S-SO 157 0 min 0,000 mm 132 W/m 10,5 C 12,3 C 8,0 km/h (2 Bft) 100 %
02.10.2017 11:50 12,4 C 12,3 C 12,4 C 90 % 1017,7 hPa 0,0 l/m 3,2 km/h (1 Bft) S 180 0 min 0,000 mm 141 W/m 10,8 C 12,4 C 11,3 km/h (2 Bft) 100 %
02.10.2017 12:00 12,6 C 12,4 C 12,6 C 89 % 1017,6 hPa 0,0 l/m 3,2 km/h (1 Bft) S-SO 157 10 min 0,076 mm 158 W/m 10,8 C 12,6 C 6,4 km/h (2 Bft) 100 %
02.10.2017 12:10 12,6 C 12,5 C 12,6 C 89 % 1017,5 hPa 0,0 l/m 1,6 km/h (1 Bft) S-SO 157 0 min 0,000 mm 93 W/m 10,8 C 12,6 C 8,0 km/h (2 Bft) 99 %
02.10.2017 12:20 12,6 C 12,6 C 12,6 C 89 % 1017,3 hPa 0,0 l/m 3,2 km/h (1 Bft) S-SO 157 0 min 0,000 mm 104 W/m 10,8 C 12,6 C 9,7 km/h (2 Bft) 100 %
02.10.2017 12:30 12,8 C 12,6 C 12,8 C 90 % 1017,1 hPa 0,0 l/m 6,4 km/h (2 Bft) S-SO 157 10 min 0,000 mm 178 W/m 11,2 C 12,8 C 11,3 km/h (2 Bft) 98 %
02.10.2017 12:40 13,1 C 12,8 C 13,1 C 89 % 1017,1 hPa 0,0 l/m 6,4 km/h (2 Bft) S-SO 157 10 min 0,000 mm 190 W/m 11,3 C 13,1 C 11,3 km/h (2 Bft) 97 %
02.10.2017 12:50 13,4 C 13,1 C 13,4 C 90 % 1017,1 hPa 0,0 l/m 6,4 km/h (2 Bft) S 180 10 min 0,000 mm 186 W/m 11,8 C 13,4 C 14,5 km/h (3 Bft) 98 %
02.10.2017 13:00 13,8 C 13,4 C 13,8 C 90 % 1016,8 hPa 0,0 l/m 6,4 km/h (2 Bft) S-SO 157 10 min 0,076 mm 237 W/m 12,2 C 13,8 C 11,3 km/h (2 Bft) 98 %
02.10.2017 13:10 14,1 C 13,8 C 14,1 C 89 % 1017,0 hPa 0,0 l/m 6,4 km/h (2 Bft) S-SO 157 10 min 0,000 mm 236 W/m 12,3 C 14,1 C 12,9 km/h (3 Bft) 96 %
02.10.2017 13:20 14,2 C 14,1 C 14,2 C 89 % 1017,0 hPa 0,0 l/m 4,8 km/h (1 Bft) S 180 10 min 0,000 mm 155 W/m 12,4 C 14,2 C 11,3 km/h (2 Bft) 97 %
02.10.2017 13:30 14,3 C 14,2 C 14,3 C 89 % 1017,0 hPa 0,0 l/m 6,4 km/h (2 Bft) S-SO 157 10 min 0,000 mm 156 W/m 12,5 C 14,3 C 11,3 km/h (2 Bft) 97 %
02.10.2017 13:40 14,4 C 14,3 C 14,4 C 89 % 1016,9 hPa 0,0 l/m 6,4 km/h (2 Bft) S 180 0 min 0,000 mm 146 W/m 12,6 C 14,4 C 14,5 km/h (3 Bft) 98 %
02.10.2017 13:50 14,7 C 14,5 C 14,7 C 89 % 1016,8 hPa 0,0 l/m 6,4 km/h (2 Bft) S 180 10 min 0,000 mm 234 W/m 12,9 C 14,7 C 16,1 km/h (3 Bft) 98 %
02.10.2017 14:00 15,1 C 14,7 C 15,1 C 88 % 1016,8 hPa 0,0 l/m 8,0 km/h (2 Bft) S-SW 202 10 min 0,076 mm 218 W/m 13,1 C 14,2 C 16,1 km/h (3 Bft) 97 %
02.10.2017 14:10 15,1 C 14,7 C 15,1 C 87 % 1016,9 hPa 0,0 l/m 10,3 km/h (2 Bft) S-SW 210 0 min 0,001 mm 113 W/m 13,0 C 13,1 C 19,3 km/h (3 Bft) 100 %
02.10.2017 14:20 15,1 C 15,1 C 15,1 C 87 % 1016,7 hPa 0,0 l/m 7,6 km/h (2 Bft) S 185 0 min 0,000 mm 104 W/m 13,0 C 14,4 C 17,7 km/h (3 Bft) 100 %
02.10.2017 14:30 15,1 C 15,1 C 15,1 C 87 % 1016,7 hPa 0,0 l/m 7,4 km/h (2 Bft) SW 218 0 min 0,000 mm 79 W/m 13,0 C 14,5 C 17,7 km/h (3 Bft) 100 %
02.10.2017 14:40 14,9 C 14,9 C 15,1 C 87 % 1016,6 hPa 0,0 l/m 7,5 km/h (2 Bft) SW 217 0 min 0,000 mm 72 W/m 12,8 C 14,3 C 17,7 km/h (3 Bft) 100 %
02.10.2017 14:50 14,9 C 14,9 C 14,9 C 87 % 1016,5 hPa 0,0 l/m 9,7 km/h (2 Bft) SW 230 0 min 0,000 mm 79 W/m 12,8 C 13,1 C 19,3 km/h (3 Bft) 100 %
02.10.2017 15:00 14,7 C 14,7 C 14,9 C 88 % 1016,4 hPa 0,0 l/m 9,1 km/h (2 Bft) S 177 0 min 0,050 mm 77 W/m 12,7 C 13,2 C 20,9 km/h (4 Bft) 99 %
02.10.2017 15:10 14,7 C 14,7 C 14,7 C 88 % 1016,0 hPa 0,0 l/m 9,4 km/h (2 Bft) S-SW 203 0 min 0,000 mm 109 W/m 12,7 C 13,1 C 20,9 km/h (4 Bft) 100 %
02.10.2017 15:20 14,8 C 14,7 C 14,8 C 89 % 1015,9 hPa 0,0 l/m 8,3 km/h (2 Bft) S-SW 200 0 min 0,000 mm 107 W/m 13,0 C 13,7 C 17,7 km/h (3 Bft) 99 %
02.10.2017 15:30 14,9 C 14,8 C 14,9 C 89 % 1016,0 hPa 0,0 l/m 8,8 km/h (2 Bft) S-SW 196 0 min 0,000 mm 120 W/m 13,1 C 13,6 C 22,5 km/h (4 Bft) 99 %
02.10.2017 15:40 15,1 C 14,9 C 15,1 C 89 % 1016,1 hPa 0,0 l/m 7,7 km/h (2 Bft) S-SW 207 0 min 0,000 mm 62 W/m 13,3 C 14,4 C 16,1 km/h (3 Bft) 99 %
02.10.2017 15:50 15,1 C 15,1 C 15,1 C 89 % 1016,3 hPa 0,2 l/m 8,1 km/h (2 Bft) S 190 0 min 0,000 mm 93 W/m 13,3 C 14,2 C 19,3 km/h (3 Bft) 100 %
02.10.2017 16:00 15,1 C 15,1 C 15,1 C 89 % 1016,2 hPa 0,0 l/m 7,7 km/h (2 Bft) SW 221 0 min 0,000 mm 104 W/m 13,3 C 14,4 C 17,7 km/h (3 Bft) 100 %
02.10.2017 16:10 15,1 C 15,1 C 15,1 C 89 % 1016,1 hPa 0,0 l/m 8,5 km/h (2 Bft) SW 215 0 min 0,051 mm 49 W/m 13,3 C 13,9 C 16,1 km/h (3 Bft) 99 %
02.10.2017 16:20 15,1 C 15,1 C 15,1 C 89 % 1016,2 hPa 0,0 l/m 9,5 km/h (2 Bft) SW 234 0 min 0,000 mm 25 W/m 13,3 C 13,5 C 22,5 km/h (4 Bft) 100 %
02.10.2017 16:30 15,1 C 15,1 C 15,1 C 89 % 1016,2 hPa 0,0 l/m 10,9 km/h (2 Bft) SW 221 0 min 0,000 mm 35 W/m 13,3 C 12,8 C 24,1 km/h (4 Bft) 100 %
02.10.2017 16:40 15,1 C 15,1 C 15,1 C 89 % 1016,1 hPa 0,0 l/m 8,6 km/h (2 Bft) S-SW 205 0 min 0,000 mm 33 W/m 13,3 C 13,9 C 16,1 km/h (3 Bft) 100 %
02.10.2017 16:50 15,1 C 15,1 C 15,1 C 89 % 1016,1 hPa 0,0 l/m 13,5 km/h (3 Bft) SW 223 0 min 0,000 mm 30 W/m 13,3 C 11,8 C 22,5 km/h (4 Bft) 100 %
02.10.2017 17:00 14,9 C 14,9 C 15,1 C 89 % 1015,9 hPa 0,0 l/m 9,8 km/h (2 Bft) S-SW 207 0 min 0,026 mm 18 W/m 13,1 C 13,1 C 20,9 km/h (4 Bft) 100 %
02.10.2017 17:10 14,8 C 14,8 C 14,9 C 89 % 1015,7 hPa 0,0 l/m 11,1 km/h (2 Bft) S-SW 208 0 min 0,000 mm 19 W/m 13,0 C 12,4 C 20,9 km/h (4 Bft) 100 %
02.10.2017 17:20 14,7 C 14,7 C 14,8 C 89 % 1015,6 hPa 0,0 l/m 9,0 km/h (2 Bft) S 189 0 min 0,000 mm 30 W/m 12,9 C 13,3 C 17,7 km/h (3 Bft) 100 %
02.10.2017 17:30 14,7 C 14,7 C 14,7 C 89 % 1015,5 hPa 0,0 l/m 8,0 km/h (2 Bft) S 187 0 min 0,000 mm 30 W/m 12,9 C 13,8 C 16,1 km/h (3 Bft) 100 %
02.10.2017 17:40 14,7 C 14,7 C 14,7 C 89 % 1015,6 hPa 0,0 l/m 8,3 km/h (2 Bft) S-SW 203 0 min 0,000 mm 21 W/m 12,9 C 13,6 C 19,3 km/h (3 Bft) 100 %
02.10.2017 17:50 14,7 C 14,6 C 14,7 C 89 % 1015,6 hPa 0,0 l/m 8,0 km/h (2 Bft) S-SW 200 0 min 0,000 mm 19 W/m 12,9 C 13,8 C 17,7 km/h (3 Bft) 100 %
02.10.2017 18:00 14,7 C 14,6 C 14,7 C 89 % 1015,5 hPa 0,0 l/m 6,2 km/h (2 Bft) S 185 0 min 0,025 mm 11 W/m 12,9 C 14,7 C 19,3 km/h (3 Bft) 100 %
02.10.2017 18:10 14,7 C 14,7 C 14,7 C 89 % 1015,7 hPa 0,0 l/m 6,6 km/h (2 Bft) S-SW 208 0 min 0,000 mm 0 W/m 12,9 C 14,6 C 16,1 km/h (3 Bft) 100 %
02.10.2017 18:20 14,7 C 14,7 C 14,7 C 89 % 1015,7 hPa 0,0 l/m 5,6 km/h (1 Bft) S 176 0 min 0,000 mm 5 W/m 12,9 C 14,7 C 12,9 km/h (3 Bft) 100 %
02.10.2017 18:30 14,7 C 14,7 C 14,7 C 89 % 1015,6 hPa 0,0 l/m 7,5 km/h (2 Bft) S-SW 211 0 min 0,000 mm 5 W/m 12,9 C 14,1 C 20,9 km/h (4 Bft) 100 %
02.10.2017 18:40 14,7 C 14,7 C 14,7 C 89 % 1015,6 hPa 0,0 l/m 7,8 km/h (2 Bft) SW 217 0 min 0,000 mm 0 W/m 12,9 C 13,9 C 17,7 km/h (3 Bft) 100 %
02.10.2017 18:50 14,7 C 14,7 C 14,7 C 89 % 1015,7 hPa 0,0 l/m 8,6 km/h (2 Bft) S-SW 194 0 min 0,000 mm 0 W/m 12,9 C 13,5 C 17,7 km/h (3 Bft) 100 %
02.10.2017 19:00 14,7 C 14,7 C 14,7 C 89 % 1015,6 hPa 0,0 l/m 10,5 km/h (2 Bft) S-SW 201 0 min 0,025 mm 0 W/m 12,9 C 12,6 C 25,7 km/h (4 Bft) 100 %
02.10.2017 19:10 14,8 C 14,7 C 14,8 C 89 % 1015,4 hPa 0,0 l/m 9,8 km/h (2 Bft) SW 215 0 min 0,000 mm 0 W/m 13,0 C 13,0 C 19,3 km/h (3 Bft) 100 %
02.10.2017 19:20 14,8 C 14,8 C 14,8 C 89 % 1015,7 hPa 0,0 l/m 10,9 km/h (2 Bft) S-SW 200 0 min 0,000 mm 0 W/m 13,0 C 12,5 C 20,9 km/h (4 Bft) 100 %
02.10.2017 19:30 14,8 C 14,8 C 14,8 C 89 % 1015,6 hPa 0,0 l/m 7,2 km/h (2 Bft) S-SW 204 0 min 0,000 mm 0 W/m 13,0 C 14,3 C 19,3 km/h (3 Bft) 100 %
02.10.2017 19:40 14,8 C 14,8 C 14,8 C 89 % 1015,6 hPa 0,0 l/m 8,5 km/h (2 Bft) W 259 0 min 0,000 mm 0 W/m 13,0 C 13,6 C 19,3 km/h (3 Bft) 100 %
02.10.2017 19:50 14,9 C 14,8 C 14,9 C 89 % 1016,1 hPa 0,0 l/m 8,7 km/h (2 Bft) W-SW 250 0 min 0,000 mm 0 W/m 13,1 C 13,6 C 19,3 km/h (3 Bft) 100 %
02.10.2017 20:00 14,9 C 14,9 C 14,9 C 89 % 1016,1 hPa 0,2 l/m 11,0 km/h (2 Bft) W-SW 257 0 min 0,026 mm 0 W/m 13,1 C 12,6 C 30,6 km/h (5 Bft) 100 %
02.10.2017 20:10 14,9 C 14,9 C 15,0 C 89 % 1016,2 hPa 0,0 l/m 10,0 km/h (2 Bft) SW 228 0 min 0,000 mm 0 W/m 13,1 C 13,0 C 30,6 km/h (5 Bft) 100 %
02.10.2017 20:20 15,0 C 14,9 C 15,0 C 89 % 1015,6 hPa 0,0 l/m 9,0 km/h (2 Bft) W-SW 248 0 min 0,000 mm 0 W/m 13,2 C 13,6 C 20,9 km/h (4 Bft) 100 %
02.10.2017 20:30 15,0 C 14,9 C 15,0 C 89 % 1015,7 hPa 0,0 l/m 7,5 km/h (2 Bft) W-SW 246 0 min 0,000 mm 0 W/m 13,2 C 14,4 C 20,9 km/h (4 Bft) 100 %
02.10.2017 20:40 14,9 C 14,9 C 15,0 C 89 % 1015,8 hPa 0,0 l/m 8,4 km/h (2 Bft) W-SW 240 0 min 0,000 mm 0 W/m 13,1 C 13,8 C 24,1 km/h (4 Bft) 100 %
02.10.2017 20:50 14,9 C 14,9 C 14,9 C 89 % 1015,9 hPa 0,0 l/m 9,4 km/h (2 Bft) W-SW 246 0 min 0,000 mm 0 W/m 13,1 C 13,3 C 22,5 km/h (4 Bft) 100 %
02.10.2017 21:00 14,9 C 14,9 C 14,9 C 89 % 1015,6 hPa 0,0 l/m 7,3 km/h (2 Bft) W 260 0 min 0,025 mm 0 W/m 13,1 C 14,4 C 24,1 km/h (4 Bft) 100 %
02.10.2017 21:10 14,9 C 14,9 C 14,9 C 90 % 1015,6 hPa 0,0 l/m 8,0 km/h (2 Bft) SW 225 0 min 0,000 mm 0 W/m 13,3 C 14,0 C 19,3 km/h (3 Bft) 98 %
02.10.2017 21:20 14,9 C 14,8 C 14,9 C 90 % 1015,8 hPa 0,0 l/m 8,0 km/h (2 Bft) W-SW 247 0 min 0,000 mm 0 W/m 13,3 C 14,0 C 20,9 km/h (4 Bft) 97 %
02.10.2017 21:30 14,9 C 14,8 C 14,9 C 90 % 1015,6 hPa 0,0 l/m 8,0 km/h (2 Bft) W-SW 247 0 min 0,000 mm 0 W/m 13,3 C 14,0 C 19,3 km/h (3 Bft) 97 %
02.10.2017 21:40 14,9 C 14,9 C 14,9 C 89 % 1015,8 hPa 0,0 l/m 9,7 km/h (2 Bft) W-SW 247 0 min 0,000 mm 0 W/m 13,1 C 13,1 C 20,9 km/h (4 Bft) 98 %
02.10.2017 21:50 14,9 C 14,9 C 14,9 C 90 % 1015,7 hPa 0,0 l/m 6,4 km/h (2 Bft) W 270 0 min 0,000 mm 0 W/m 13,3 C 14,9 C 19,3 km/h (3 Bft) 98 %
02.10.2017 22:00 14,9 C 14,9 C 14,9 C 90 % 1015,7 hPa 0,0 l/m 6,4 km/h (2 Bft) W-SW 247 0 min 0,025 mm 0 W/m 13,3 C 14,9 C 17,7 km/h (3 Bft) 97 %
02.10.2017 22:10 14,9 C 14,9 C 14,9 C 90 % 1015,5 hPa 0,0 l/m 8,0 km/h (2 Bft) W-SW 247 0 min 0,000 mm 0 W/m 13,3 C 14,0 C 29,0 km/h (5 Bft) 98 %
02.10.2017 22:20 14,8 C 14,8 C 14,9 C 90 % 1015,5 hPa 0,0 l/m 6,4 km/h (2 Bft) W-NW 292 0 min 0,000 mm 0 W/m 13,2 C 14,8 C 22,5 km/h (4 Bft) 98 %
02.10.2017 22:30 14,8 C 14,8 C 14,8 C 90 % 1015,5 hPa 0,0 l/m 4,8 km/h (1 Bft) W-SW 247 0 min 0,000 mm 0 W/m 13,2 C 14,8 C 16,1 km/h (3 Bft) 98 %
02.10.2017 22:40 14,8 C 14,7 C 14,8 C 90 % 1015,4 hPa 0,0 l/m 1,6 km/h (1 Bft) W-SW 247 0 min 0,000 mm 0 W/m 13,2 C 14,8 C 9,7 km/h (2 Bft) 97 %
02.10.2017 22:50 14,7 C 14,7 C 14,8 C 89 % 1015,4 hPa 0,0 l/m 4,8 km/h (1 Bft) SW 225 0 min 0,000 mm 0 W/m 12,9 C 14,7 C 22,5 km/h (4 Bft) 97 %
02.10.2017 23:00 14,7 C 14,7 C 14,7 C 89 % 1015,3 hPa 0,0 l/m 6,4 km/h (2 Bft) SW 225 0 min 0,025 mm 0 W/m 12,9 C 14,7 C 19,3 km/h (3 Bft) 98 %
02.10.2017 23:10 14,7 C 14,7 C 14,7 C 89 % 1015,1 hPa 0,0 l/m 4,8 km/h (1 Bft) W-SW 247 0 min 0,000 mm 0 W/m 12,9 C 14,7 C 17,7 km/h (3 Bft) 96 %
02.10.2017 23:20 14,7 C 14,7 C 14,7 C 89 % 1015,3 hPa 0,0 l/m 6,4 km/h (2 Bft) W-SW 247 0 min 0,000 mm 0 W/m 12,9 C 14,7 C 17,7 km/h (3 Bft) 98 %
02.10.2017 23:30 14,7 C 14,7 C 14,7 C 89 % 1015,2 hPa 0,0 l/m 8,0 km/h (2 Bft) W-SW 247 0 min 0,000 mm 0 W/m 12,9 C 13,8 C 17,7 km/h (3 Bft) 98 %
02.10.2017 23:40 14,6 C 14,6 C 14,7 C 89 % 1015,0 hPa 0,0 l/m 9,7 km/h (2 Bft) W-SW 247 0 min 0,000 mm 0 W/m 12,8 C 12,8 C 24,1 km/h (4 Bft) 98 %
02.10.2017 23:50 14,6 C 14,6 C 14,6 C 89 % 1015,1 hPa 0,0 l/m 6,4 km/h (2 Bft) SW 225 0 min 0,000 mm 0 W/m 12,8 C 14,6 C 27,4 km/h (4 Bft) 97 %
_ Min-Zeit 07:00 07:00 07:10 14:10 23:40 - 00:00 - - - - - 00:10 07:10 00:00 04:50
Minimum _ 7,2 C 7,2 C 7,2 C 87 % 1015,0 hPa - 0,0 km/h (0 Bft) - - - - - 5,6 C 7,2 C 0,0 km/h (0 Bft) 90 %
_ Max-Zeit 14:00 14:20 14:00 08:10 00:20 11:10 16:50 - - 10:20 12:00 13:00 15:40 21:50 20:00 00:10
Maximum _ 15,1 C 15,1 C 15,1 C 94 % 1020,4 hPa 0,2 l/m 13,5 km/h
SW (3 Bft)
- - 10 min 0,076 mm 237 W/m 13,3 C 14,9 C 30,6 km/h
W-SW (5 Bft)
100 %
Durchschnitt _ 11,6 C 11,5 C 11,6 C 89 % 1017,4 hPa #0,6 l/m 4,1 km/h (1 Bft) S - #2:00 h #0,634 mm 94 W/m 9,9 C 11,2 C 10,2 km/h (2 Bft) 99 %
PRIVATE WETTERSTATION BILLIGHEIM-ALLFELD - www.neckar-odenwald-wetter.de - Holger Sonntag